This is the latest recevied weather packets stored in our database for station/object OH6HPS. If no packets are shown the sender has not sent any weather packets the latest 10 day(s).
| Time | Temp. | Humidity | Pressure | Rain* | Wind** | Luminosity | Snow |
|---|---|---|---|---|---|---|---|
| 1777745939 | 13.33° C | 60% | 1007.4 hPa | 0 mm | - | 5 W/m² | - |
| 1777745622 | 13.33° C | 60% | 1007.5 hPa | 0 mm | - | 7 W/m² | - |
| 1777745348 | 13.33° C | 60% | 1007.5 hPa | 0 mm | - | 7 W/m² | - |
| 1777744739 | 13.89° C | 60% | 1007.5 hPa | 0 mm | - | 11 W/m² | - |
| 1777744139 | 13.89° C | 59% | 1007.6 hPa | 0 mm | - | 12 W/m² | - |
| 1777743538 | 14.44° C | 57% | 1007.7 hPa | 0 mm | - | 14 W/m² | - |
| 1777742937 | 14.44° C | 56% | 1007.7 hPa | 0 mm | - | 16 W/m² | - |
| 1777742335 | 14.44° C | 57% | 1007.7 hPa | 0 mm | - | 18 W/m² | - |
| 1777741737 | 15° C | 56% | 1007.8 hPa | 0 mm | - | 19 W/m² | - |
| 1777741136 | 15° C | 55% | 1007.9 hPa | 0 mm | - | 21 W/m² | - |
| 1777740536 | 15.56° C | 54% | 1007.9 hPa | 0 mm | - | 23 W/m² | - |
| 1777739936 | 16.11° C | 52% | 1008 hPa | 0 mm | - | 25 W/m² | - |
| 1777739337 | 16.67° C | 49% | 1008.1 hPa | 0 mm | - | 49 W/m² | - |
| 1777738735 | 17.78° C | 47% | 1008.1 hPa | 0 mm | - | 160 W/m² | - |
| 1777738135 | 18.33° C | 46% | 1008.1 hPa | 0 mm | - | 204 W/m² | - |
| 1777737821 | 18.89° C | 43% | 1008.2 hPa | 0 mm | - | 229 W/m² | - |
| 1777737537 | 18.89° C | 43% | 1008.2 hPa | 0 mm | - | 229 W/m² | - |
| 1777736935 | 18.89° C | 42% | 1008.3 hPa | 0 mm | - | 252 W/m² | - |
| 1777736335 | 18.89° C | 41% | 1008.3 hPa | 0 mm | - | 273 W/m² | - |
| 1777735734 | 20° C | 39% | 1008.4 hPa | 0 mm | - | 294 W/m² | - |
| 1777735135 | 20.56° C | 36% | 1008.4 hPa | 0 mm | - | 318 W/m² | - |
| 1777734534 | 20.56° C | 34% | 1008.5 hPa | 0 mm | - | 338 W/m² | - |
| 1777733934 | 20.56° C | 34% | 1008.6 hPa | 0 mm | - | 357 W/m² | - |
| 1777733335 | 20.56° C | 33% | 1008.6 hPa | 0 mm | - | 378 W/m² | - |
| 1777732732 | 20.56° C | 34% | 1008.7 hPa | 0 mm | - | 398 W/m² | - |
* Rain latest hour (hover to see other rain measurements)
** Current wind speed in m/s (hover to see current wind gust speed)